Startpagina
METAR-TAF:

METAR-TAF

Vliegvelden :

Luchthaven Ivato

Antananarivo, Madagaskar

breedte: 18-48S, lengte: 047-29E, hoogte: 1279 m

Actueel weer

Dit bericht is 9 minuten geleden gemaakt, om 13:00 UTC
Wind 11 kt uit het zuidoosten, variërend tussen het oostzuidoosten en het zuiden
Temperatuur 19°C
Vochtigheid 52%
Druk 1021 hPa
Zicht 10 km of meer
Verspreide wolken op 2300 ft

METAR: FMMI 211300Z 14011KT 110V180 9999 SCT023 19/09 Q1021 NOSIG

Tijdstip: 16:09 (13:09 UTC)

Verwachting

Dit bericht is 2 uur en het 9 minuten geleden gemaakt, om 11:00 UTC
Verwachting geldig van 21 om 12 UTC tot 22 om 18 UTC
Wind 10 kt uit het zuidoosten
Zicht 10 km of meer
Gebroken wolken op 2000 ft

TAF: FMMI 211100Z 2112/2218 14010KT 9999 BKN020

Waarnemingen en weersverwachtingen van meer dan 4000 vliegvelden (METAR en TAF).

De beschikbare stations zijn de gele en rode punten op de kaart.

Ga met uw muis naar het station om de naam te zien.

Klik dan om waarnemingen en weersverwachtingen te zien.

kaart wijzigen: klik op de groene knoppen met een zwart kruis om in te zoomen, op de groene knop met een streepje om uit te zoomen of op de groene pijlen voor aangrenzende kaarten.


METAR-TAF: